createdAt,value
2022-10-01T00:13:40.351Z,11.09
2022-10-01T00:33:40.380Z,10.92
2022-10-01T00:53:40.296Z,10.90
2022-10-01T01:13:40.321Z,10.90
2022-10-01T01:33:40.244Z,10.88
2022-10-01T01:53:40.261Z,10.52
2022-10-01T02:13:40.284Z,10.23
2022-10-01T02:33:40.205Z,10.21
2022-10-01T02:53:40.229Z,10.17
2022-10-01T03:13:40.252Z,10.05
2022-10-01T03:33:40.173Z,9.96
2022-10-01T03:53:40.199Z,9.62
2022-10-01T04:13:40.119Z,9.23
2022-10-01T04:33:40.143Z,8.93
2022-10-01T04:53:40.165Z,8.90
2022-10-01T05:13:40.087Z,9.18
2022-10-01T05:33:40.105Z,9.33
2022-10-01T05:53:40.128Z,9.55
2022-10-01T06:13:40.050Z,9.89
2022-10-01T06:33:40.072Z,10.21
2022-10-01T06:53:40.095Z,10.59
2022-10-01T07:13:40.012Z,10.96
2022-10-01T07:33:40.031Z,11.35
2022-10-01T07:53:39.955Z,11.77
2022-10-01T08:13:39.980Z,12.21
2022-10-01T08:33:39.998Z,12.52
2022-10-01T08:53:39.922Z,12.69
2022-10-01T09:13:39.946Z,12.80
2022-10-01T09:33:39.866Z,13.17
2022-10-01T09:53:39.889Z,12.95
2022-10-01T10:13:40.039Z,12.38
2022-10-01T10:33:39.824Z,11.90
2022-10-01T10:53:39.849Z,11.69
2022-10-01T11:13:39.820Z,11.54
2022-10-01T11:33:39.862Z,11.26
2022-10-01T11:53:39.811Z,11.24
2022-10-01T12:13:39.750Z,11.22
2022-10-01T12:33:39.796Z,11.20
2022-10-01T12:53:39.702Z,11.15
2022-10-01T13:13:39.725Z,11.26
2022-10-01T13:33:39.647Z,11.44
2022-10-01T13:53:39.699Z,11.53
2022-10-01T14:13:39.695Z,11.69
2022-10-01T14:33:39.656Z,11.96
2022-10-01T14:53:39.657Z,12.20
2022-10-01T15:13:39.556Z,12.32
2022-10-01T15:33:39.615Z,12.44
2022-10-01T15:53:39.617Z,12.49
2022-10-01T16:13:39.522Z,12.66
2022-10-01T16:33:39.552Z,12.67
2022-10-01T16:53:39.465Z,12.72
2022-10-01T17:13:39.535Z,12.78
2022-10-01T17:33:39.510Z,12.77
2022-10-01T17:53:39.431Z,12.85
2022-10-01T18:13:39.630Z,12.99
2022-10-01T18:33:39.376Z,13.03
2022-10-01T18:53:39.397Z,12.94
2022-10-01T19:13:39.314Z,12.96
2022-10-01T19:33:39.341Z,12.87
2022-10-01T19:53:39.359Z,12.88
2022-10-01T20:13:39.281Z,12.86
2022-10-01T20:33:39.307Z,12.77
2022-10-01T20:53:39.225Z,12.50
2022-10-01T21:13:39.250Z,12.50
2022-10-01T21:33:39.207Z,12.50
2022-10-01T21:53:39.188Z,12.48
2022-10-01T22:13:39.207Z,12.62
2022-10-01T22:33:39.130Z,12.68
2022-10-01T22:53:39.150Z,12.76
2022-10-01T23:13:39.072Z,12.77
2022-10-01T23:33:39.091Z,12.82
2022-10-01T23:53:39.116Z,12.80
